Edina, Minnesota
Current Conditions -  °F | °C
As of 1:20 PM on Sunday 21 Dec 2014 (Local Time) from KMSP Reporting Station
Light Snow Light Snow  
Wind Chill: -2°   Ceiling: 500
Heat Index:   Visibility: 2mi
Dew Point:   Wind: 9mph
Humidity: 96%   Direction: 150°SSE
Pressure: 29.77"   Gusts: NA
Location:  44.91°N, 93.35°W
Report Text: KMSP 211920Z 15008KT 2SM -RASN BR OVC005 02/01 A2977 RMK AO2 SFC VIS 2 1/2 SNB07 P0001 T00170011
Loading
Personal Weather Stations






























Interactive Weather Map New forecast layout! Learn more

10-Day Weather Forecast

Advertisements
Track Severe Weather on mobile